createdAt,value
2022-12-08T07:07:51.431Z,98298.81
2022-12-08T07:09:22.940Z,98293.19
2022-12-08T07:10:54.347Z,98294.13
2022-12-08T07:12:25.752Z,98289.63
2022-12-08T07:13:57.134Z,98282.53
2022-12-08T07:15:28.544Z,98287.22
2022-12-08T07:17:00.028Z,98278.44
2022-12-08T07:18:31.471Z,98277.69
2022-12-08T07:20:03.190Z,98273.63
2022-12-08T07:21:34.864Z,98276.81
2022-12-08T07:23:06.280Z,98271.75
2022-12-08T07:24:37.675Z,98263.72
2022-12-08T07:26:09.965Z,98279.19
2022-12-08T07:27:41.371Z,98272.75
2022-12-08T07:29:12.773Z,98277.78
2022-12-08T07:30:44.254Z,98269.88
2022-12-08T07:32:15.706Z,98271.94
2022-12-08T07:33:47.282Z,98270.09
2022-12-08T07:35:18.701Z,98266.81
2022-12-08T07:36:50.097Z,98262.03
2022-12-08T07:38:21.573Z,98260.66
2022-12-08T07:39:53.027Z,98263.91
2022-12-08T07:41:24.772Z,98269.78
2022-12-08T07:42:56.166Z,98273.00
2022-12-08T07:44:27.572Z,98267.94
2022-12-08T07:45:59.063Z,98260.50
2022-12-08T07:47:30.487Z,98260.78
2022-12-08T07:49:01.901Z,98259.13
2022-12-08T07:50:33.321Z,98257.47
2022-12-08T07:52:04.765Z,98268.44
2022-12-08T07:53:36.165Z,98261.94
2022-12-08T07:55:07.792Z,98265.59
2022-12-08T07:56:39.205Z,98268.25
2022-12-08T07:58:11.131Z,98267.06
2022-12-08T07:59:42.537Z,98272.69
2022-12-08T08:01:24.642Z,98263.47
2022-12-08T08:02:56.258Z,98255.28
2022-12-08T08:04:27.797Z,98272.31
2022-12-08T08:06:02.990Z,98274.53
2022-12-08T08:07:34.465Z,98267.06
2022-12-08T08:09:05.878Z,98268.81
2022-12-08T08:10:37.278Z,98271.03
2022-12-08T08:12:30.179Z,98279.31
2022-12-08T08:14:00.533Z,98272.28
2022-12-08T08:15:32.089Z,98279.13
2022-12-08T08:17:03.684Z,98275.50
2022-12-08T08:18:35.330Z,98279.94
2022-12-08T08:20:07.479Z,98282.16
2022-12-08T08:21:46.633Z,98277.84
2022-12-08T08:23:18.153Z,98279.56
2022-12-08T08:24:49.546Z,98277.16
2022-12-08T08:26:20.974Z,98278.66
2022-12-08T08:27:52.410Z,98273.59
2022-12-08T08:29:23.824Z,98277.28
2022-12-08T08:30:55.338Z,98267.34
2022-12-08T08:32:26.818Z,98274.44
2022-12-08T08:33:58.221Z,98271.28
2022-12-08T08:35:29.636Z,98273.50
2022-12-08T08:37:01.102Z,98271.09
2022-12-08T08:38:32.577Z,98276.72
2022-12-08T08:40:04.353Z,98272.84
2022-12-08T08:41:35.897Z,98272.38
2022-12-08T08:43:07.299Z,98270.44
2022-12-08T08:44:38.682Z,98264.66
2022-12-08T08:46:10.208Z,98269.50
2022-12-08T08:47:41.684Z,98263.72
2022-12-08T08:49:13.105Z,98267.13
2022-12-08T08:50:44.521Z,98265.19
2022-12-08T08:52:15.908Z,98262.03
2022-12-08T08:53:47.323Z,98265.44
2022-12-08T08:55:18.792Z,98264.25
2022-12-08T08:56:50.260Z,98253.56
2022-12-08T08:58:21.688Z,98256.25
2022-12-08T08:59:55.983Z,98255.75
2022-12-08T09:01:27.660Z,98247.28
2022-12-08T09:02:59.130Z,98260.19
2022-12-08T09:04:30.605Z,98258.22
2022-12-08T09:06:02.174Z,98260.44
2022-12-08T09:07:33.595Z,98269.94
2022-12-08T09:09:05.016Z,98260.44
2022-12-08T09:10:36.414Z,98253.16
2022-12-08T09:12:07.990Z,98263.41
2022-12-08T09:13:39.389Z,98267.53
2022-12-08T09:15:10.865Z,98264.41
2022-12-08T09:16:42.736Z,98259.06
2022-12-08T09:18:14.221Z,98260.53
2022-12-08T09:19:45.645Z,98259.78
2022-12-08T09:21:19.663Z,98255.91
2022-12-08T09:22:51.233Z,98253.22
2022-12-08T09:24:22.662Z,98246.69
2022-12-08T09:25:54.061Z,98243.28
2022-12-08T09:27:25.463Z,98247.44
2022-12-08T09:28:56.930Z,98246.69
2022-12-08T09:30:28.331Z,98250.84
2022-12-08T09:31:59.722Z,98253.50
2022-12-08T09:33:31.347Z,98246.25
2022-12-08T09:35:02.756Z,98243.56
2022-12-08T09:36:34.155Z,98242.34
2022-12-08T09:38:05.557Z,98242.34
2022-12-08T09:39:36.955Z,98234.31
2022-12-08T09:41:33.888Z,98238.97
2022-12-08T09:43:08.169Z,98235.06
2022-12-08T09:45:02.657Z,98231.19
2022-12-08T09:46:34.142Z,98229.72
2022-12-08T09:48:05.693Z,98224.38
2022-12-08T09:49:38.393Z,98223.63
2022-12-08T09:51:09.799Z,98214.72
2022-12-08T09:52:45.865Z,98222.72
2022-12-08T09:54:19.874Z,98221.53
2022-12-08T09:55:51.474Z,98216.94
2022-12-08T09:57:22.865Z,98209.66
2022-12-08T09:59:05.234Z,98205.03
2022-12-08T10:00:36.635Z,98203.56
2022-12-08T10:02:13.430Z,98199.69
2022-12-08T10:03:44.932Z,98197.03
2022-12-08T10:05:16.403Z,98186.34
2022-12-08T10:06:49.913Z,98192.88
2022-12-08T10:08:27.688Z,98197.03
2022-12-08T10:10:01.992Z,98184.41
2022-12-08T10:11:39.452Z,98189.75
2022-12-08T10:13:29.398Z,98183.66
2022-12-08T10:15:10.458Z,98185.16
2022-12-08T10:16:42.371Z,98170.56
2022-12-08T10:18:17.490Z,98171.28
2022-12-08T10:19:49.411Z,98172.78
2022-12-08T10:21:21.229Z,98168.16
2022-12-08T10:22:56.188Z,98171.56
2022-12-08T10:24:34.767Z,98180.34
2022-12-08T10:26:07.027Z,98170.84
2022-12-08T10:27:38.423Z,98169.66
2022-12-08T10:29:13.143Z,98166.97
2022-12-08T10:30:44.566Z,98163.56
2022-12-08T10:32:20.075Z,98158.22
2022-12-08T10:33:58.601Z,98158.97
2022-12-08T10:35:49.198Z,98158.22
2022-12-08T10:37:20.706Z,98154.81
2022-12-08T10:38:52.127Z,98149.47
2022-12-08T10:40:23.560Z,98152.13
2022-12-08T10:42:00.111Z,98158.97
2022-12-08T10:43:31.680Z,98156.28
2022-12-08T10:45:09.203Z,98149.72
2022-12-08T10:46:40.632Z,98142.91
2022-12-08T10:48:12.043Z,98140.25
2022-12-08T10:49:43.423Z,98139.50
2022-12-08T10:51:37.933Z,98136.09
2022-12-08T10:53:09.329Z,98131.50
2022-12-08T10:54:44.798Z,98136.09
2022-12-08T10:56:16.448Z,98135.34
2022-12-08T10:57:48.087Z,98134.63
2022-12-08T10:59:19.568Z,98127.34
2022-12-08T11:00:51.881Z,98118.59
2022-12-08T11:02:23.527Z,98115.91
2022-12-08T11:04:01.644Z,98118.59
2022-12-08T11:05:33.872Z,98116.66
2022-12-08T11:07:05.381Z,98114.72
2022-12-08T11:08:38.181Z,98112.78
2022-12-08T11:10:14.885Z,98112.78
2022-12-08T11:11:53.269Z,98113.53
2022-12-08T11:13:25.444Z,98109.63
2022-12-08T11:14:58.709Z,98100.16
2022-12-08T11:16:30.164Z,98100.88
2022-12-08T11:18:06.464Z,98100.88
2022-12-08T11:19:38.452Z,98096.25
2022-12-08T11:21:11.315Z,98093.59
2022-12-08T11:22:43.275Z,98097.75
2022-12-08T11:24:14.689Z,98087.03
2022-12-08T11:25:46.096Z,98095.06
2022-12-08T11:27:17.543Z,98095.06
2022-12-08T11:28:48.978Z,98091.19
2022-12-08T11:30:21.463Z,98093.13
2022-12-08T11:31:53.757Z,98088.53
2022-12-08T11:33:25.612Z,98094.59
2022-12-08T11:35:00.758Z,98094.59
2022-12-08T11:36:32.413Z,98098.00
2022-12-08T11:38:23.275Z,98091.94
2022-12-08T11:39:55.297Z,98088.78
2022-12-08T11:41:30.617Z,98086.59
2022-12-08T11:43:20.720Z,98088.53
2022-12-08T11:45:04.028Z,98087.03
2022-12-08T11:46:37.225Z,98095.34
2022-12-08T11:48:11.548Z,98090.00
2022-12-08T11:49:42.958Z,98091.44
2022-12-08T11:51:33.050Z,98102.88
2022-12-08T11:53:04.459Z,98087.56
2022-12-08T11:54:36.666Z,98088.31
2022-12-08T11:56:19.206Z,98085.63
2022-12-08T11:57:50.697Z,98093.16
2022-12-08T11:59:37.932Z,98090.50
2022-12-08T12:01:40.927Z,98091.97
2022-12-08T12:03:25.142Z,98093.91
2022-12-08T12:05:33.247Z,98089.78
2022-12-08T12:07:29.571Z,98094.41
2022-12-08T12:09:15.919Z,98091.22
2022-12-08T12:10:55.772Z,98090.50
2022-12-08T12:12:39.612Z,98094.66
2022-12-08T12:14:14.450Z,98087.13
2022-12-08T12:15:57.778Z,98082.47
2022-12-08T12:17:38.238Z,98085.88
2022-12-08T12:19:13.790Z,98085.16
2022-12-08T12:20:56.144Z,98077.88
2022-12-08T12:22:27.546Z,98089.06
2022-12-08T12:24:00.240Z,98079.81
2022-12-08T12:25:31.621Z,98074.47
2022-12-08T12:27:05.942Z,98079.81
2022-12-08T12:28:44.618Z,98076.44
2022-12-08T12:30:20.268Z,98077.88
2022-12-08T12:31:53.230Z,98080.53
2022-12-08T12:33:24.632Z,98081.28
2022-12-08T12:34:56.994Z,98074.47
2022-12-08T12:36:28.398Z,98079.81
2022-12-08T12:38:01.743Z,98077.88
2022-12-08T12:39:35.443Z,98065.25
2022-12-08T12:41:06.844Z,98078.59
2022-12-08T12:42:38.282Z,98072.06
2022-12-08T12:44:32.699Z,98067.19
2022-12-08T12:46:22.625Z,98068.41
2022-12-08T12:47:57.249Z,98068.41
2022-12-08T12:49:40.901Z,98071.06
2022-12-08T12:51:41.633Z,98073.00
2022-12-08T12:53:15.816Z,98066.19
2022-12-08T12:54:50.102Z,98065.47
2022-12-08T12:56:40.136Z,98057.94
2022-12-08T12:58:29.964Z,98068.63
2022-12-08T13:00:01.429Z,98073.22
2022-12-08T13:01:36.402Z,98070.56
2022-12-08T13:03:12.206Z,98069.06
2022-12-08T13:04:43.631Z,98060.31
2022-12-08T13:06:15.291Z,98063.00
2022-12-08T13:07:51.472Z,98054.97
2022-12-08T13:09:28.735Z,98058.84
2022-12-08T13:11:03.638Z,98059.59
2022-12-08T13:12:35.073Z,98056.19
2022-12-08T13:14:06.459Z,98052.06
2022-12-08T13:15:49.962Z,98049.31
2022-12-08T13:17:28.396Z,98053.25
2022-12-08T13:19:00.105Z,98052.53
2022-12-08T13:20:31.522Z,98054.44
2022-12-08T13:22:02.908Z,98052.28
2022-12-08T13:23:37.373Z,98047.63
2022-12-08T13:25:29.470Z,98044.97
2022-12-08T13:27:05.851Z,98042.28
2022-12-08T13:28:56.023Z,98040.34
2022-12-08T13:30:44.001Z,98042.28
2022-12-08T13:32:18.316Z,98041.09
2022-12-08T13:33:49.730Z,98041.59
2022-12-08T13:35:21.137Z,98052.53
2022-12-08T13:36:59.402Z,98044.50
2022-12-08T13:38:31.367Z,98049.09
2022-12-08T13:40:08.429Z,98045.25
2022-12-08T13:41:41.418Z,98050.59
2022-12-08T13:43:17.149Z,98046.44
2022-12-08T13:45:20.188Z,98043.31
2022-12-08T13:47:09.914Z,98043.31
2022-12-08T13:50:09.852Z,98047.16
2022-12-08T13:52:37.049Z,98045.25
2022-12-08T13:58:26.372Z,98049.84
2022-12-08T14:00:07.769Z,98056.66
2022-12-08T14:01:45.535Z,98053.25
2022-12-08T14:03:17.018Z,98061.28
2022-12-08T14:05:16.952Z,98053.25
2022-12-08T14:06:40.671Z,98054.44
2022-12-08T14:08:42.965Z,98049.84
2022-12-08T14:10:14.188Z,98049.09
2022-12-08T14:11:46.833Z,98055.66
2022-12-08T14:13:18.234Z,98058.06
2022-12-08T14:15:06.020Z,98048.59
2022-12-08T14:16:40.816Z,98049.03
2022-12-08T14:18:22.728Z,98060.94
2022-12-08T14:20:09.920Z,98050.69
2022-12-08T14:21:41.365Z,98048.03
2022-12-08T14:23:16.051Z,98054.59
2022-12-08T14:24:49.739Z,98049.25
2022-12-08T14:26:21.146Z,98045.84
2022-12-08T14:27:56.393Z,98045.09
2022-12-08T14:30:00.981Z,98053.13
2022-12-08T14:31:33.475Z,98046.31
2022-12-08T14:33:05.658Z,98054.31
2022-12-08T14:34:37.043Z,98048.97
2022-12-08T14:36:10.640Z,98046.06
2022-12-08T14:37:42.488Z,98049.47
2022-12-08T14:41:09.385Z,98040.91
2022-12-08T14:44:22.496Z,98049.84
2022-12-08T14:45:54.616Z,98050.34
2022-12-08T14:47:34.817Z,98047.66
2022-12-08T14:50:54.577Z,98055.41
2022-12-08T14:52:25.998Z,98055.16
2022-12-08T14:54:00.536Z,98049.06
2022-12-08T14:55:35.135Z,98052.94
2022-12-08T14:57:12.918Z,98056.84
2022-12-08T14:58:44.369Z,98057.28
2022-12-08T15:00:20.568Z,98059.22
2022-12-08T15:01:53.138Z,98052.91
2022-12-08T15:03:28.481Z,98050.22
2022-12-08T15:05:08.320Z,98047.28
2022-12-08T15:06:53.076Z,98054.56
2022-12-08T15:08:24.649Z,98052.81
2022-12-08T15:10:14.681Z,98061.31
2022-12-08T15:11:46.125Z,98061.31
2022-12-08T15:13:17.501Z,98056.44
2022-12-08T15:14:55.134Z,98062.97
2022-12-08T15:16:26.634Z,98058.84
2022-12-08T15:18:06.484Z,98061.53
2022-12-08T15:19:37.915Z,98068.06
2022-12-08T15:21:09.814Z,98067.31
2022-12-08T15:22:41.230Z,98061.72
2022-12-08T15:24:13.057Z,98062.44
2022-12-08T15:25:44.500Z,98062.91
2022-12-08T15:27:19.430Z,98062.91
2022-12-08T15:28:50.859Z,98071.38
2022-12-08T15:30:22.263Z,98070.66
2022-12-08T15:31:55.407Z,98066.53
2022-12-08T15:33:26.890Z,98068.47
2022-12-08T15:34:58.348Z,98072.75
2022-12-08T15:36:29.748Z,98076.91
2022-12-08T15:38:01.175Z,98070.09
2022-12-08T15:39:40.660Z,98070.09
2022-12-08T17:52:11.930Z,98058.28
2022-12-08T17:53:43.797Z,98056.59
2022-12-08T17:55:15.625Z,98053.03
2022-12-08T17:56:47.358Z,98053.28
2022-12-08T17:58:19.360Z,98054.28
2022-12-08T17:59:51.187Z,98053.81
2022-12-08T18:01:23.693Z,98053.81
2022-12-08T18:02:55.457Z,98061.38
2022-12-08T18:04:27.292Z,98064.75
2022-12-08T18:06:02.240Z,98054.38
2022-12-08T18:07:33.657Z,98053.19
2022-12-08T18:09:07.766Z,98038.59
2022-12-08T18:10:42.014Z,98041.56
2022-12-08T18:12:13.415Z,98040.38
2022-12-08T18:15:21.336Z,98037.94
2022-12-08T18:16:53.177Z,98039.41
2022-12-08T18:18:24.890Z,98034.81
2022-12-08T18:19:56.816Z,98034.09
2022-12-08T18:21:28.581Z,98034.81
2022-12-08T18:23:00.305Z,98031.66
2022-12-08T18:24:31.759Z,98041.16
2022-12-08T18:26:09.202Z,98032.41
2022-12-08T18:27:43.191Z,98027.78
2022-12-08T18:29:15.202Z,98025.13
2022-12-08T18:30:46.984Z,98025.13
2022-12-08T18:32:18.809Z,98028.53
2022-12-08T18:33:52.771Z,98024.38
2022-12-08T18:35:25.699Z,98025.88
2022-12-08T18:36:57.262Z,98029.28
2022-12-08T18:38:30.223Z,98026.59
2022-12-08T18:40:04.547Z,98036.53
2022-12-08T18:41:40.611Z,98024.38
2022-12-08T18:43:15.554Z,98018.31
2022-12-08T18:44:47.079Z,98030.22
2022-12-08T18:46:18.674Z,98030.22
2022-12-08T18:47:50.986Z,98033.34
2022-12-08T18:49:24.236Z,98031.13
2022-12-08T18:50:56.231Z,98035.28
2022-12-08T18:52:31.933Z,98041.06
2022-12-08T18:54:05.761Z,98033.56
2022-12-08T18:55:39.052Z,98044.97
2022-12-08T18:57:14.101Z,98045.44
2022-12-08T18:58:45.748Z,98041.28
2022-12-08T19:00:17.955Z,98043.94
2022-12-08T19:01:50.091Z,98043.94
2022-12-08T19:03:22.181Z,98043.69
2022-12-08T19:04:56.989Z,98039.53
2022-12-08T19:06:29.056Z,98036.84
2022-12-08T19:08:00.906Z,98040.72
2022-12-08T19:09:32.975Z,98039.28
2022-12-08T19:11:05.087Z,98048.47
2022-12-08T19:12:37.351Z,98047.00
2022-12-08T19:14:12.829Z,98048.22
2022-12-08T19:15:44.728Z,98053.56
2022-12-08T19:17:16.728Z,98064.25
